Time;durP1;ratioP1;P1;durP2;ratioP2;P2;SDS_P1;SDS_P2;PMS_P1;PMS_P2;Temp;Humidity;BMP_temperature;BMP_pressure;BME280_temperature;BME280_humidity;BME280_pressure;Samples;Min_cycle;Max_cycle;Signal;HPM_P1;HPM_P2
2022/08/21 00:00:05;;;;;;;5.67;4.90;;;20.50;71.70;;;;;;5074181;28;20482;-70
2022/08/21 00:02:32;;;;;;;5.77;5.27;;;20.40;71.90;;;;;;5074164;28;20473;-70
2022/08/21 00:04:59;;;;;;;6.67;4.87;;;20.40;71.90;;;;;;5074150;28;20879;-70
2022/08/21 00:07:27;;;;;;;7.90;5.23;;;20.40;72.10;;;;;;5073884;28;20459;-70
2022/08/21 00:09:54;;;;;;;5.37;4.83;;;20.40;72.00;;;;;;5074014;28;20476;-70
2022/08/21 00:12:22;;;;;;;5.70;5.20;;;20.30;72.00;;;;;;5074080;28;20451;-71
2022/08/21 00:14:49;;;;;;;6.60;4.63;;;20.30;72.30;;;;;;5073954;28;20464;-71
2022/08/21 00:17:15;;;;;;;7.20;5.40;;;20.20;72.30;;;;;;5073894;28;20484;-71
2022/08/21 00:19:42;;;;;;;5.40;5.00;;;20.20;72.50;;;;;;5073838;28;20456;-71
2022/08/21 00:22:09;;;;;;;8.00;5.77;;;20.20;72.60;;;;;;5073972;28;20444;-71
2022/08/21 00:24:37;;;;;;;6.60;5.27;;;20.10;72.70;;;;;;5073754;28;20457;-71
2022/08/21 00:27:04;;;;;;;8.37;5.60;;;20.10;72.90;;;;;;5073792;28;20447;-71
2022/08/21 00:29:31;;;;;;;7.43;6.00;;;20.00;73.10;;;;;;5073090;28;20456;-71
2022/08/21 00:31:58;;;;;;;6.83;6.13;;;20.00;73.30;;;;;;5073905;28;20461;-72
2022/08/21 00:34:25;;;;;;;7.13;6.40;;;20.00;73.70;;;;;;5073871;28;20469;-72
2022/08/21 00:36:52;;;;;;;7.70;5.90;;;19.90;73.60;;;;;;5073554;28;21010;-73
2022/08/21 00:39:19;;;;;;;8.10;5.70;;;19.90;73.70;;;;;;5073909;28;20468;-73
2022/08/21 00:41:47;;;;;;;12.73;6.00;;;19.90;73.80;;;;;;5073848;28;20449;-72
2022/08/21 00:44:15;;;;;;;6.50;5.90;;;19.90;74.60;;;;;;5074006;28;20473;-72
2022/08/21 00:46:43;;;;;;;8.63;5.37;;;19.90;73.60;;;;;;5073906;28;20527;-73
2022/08/21 00:49:13;;;;;;;6.67;6.07;;;19.90;73.90;;;;;;5074050;28;21004;-73
2022/08/21 00:51:45;;;;;;;9.37;6.03;;;19.80;73.90;;;;;;5073998;28;20449;-73
2022/08/21 00:54:14;;;;;;;8.13;6.77;;;19.80;74.10;;;;;;5073535;28;20473;-73
2022/08/21 00:56:41;;;;;;;8.33;6.23;;;19.70;74.30;;;;;;5074232;28;20489;-72
2022/08/21 00:59:09;;;;;;;8.80;6.23;;;19.70;74.70;;;;;;5074046;28;20452;-71
2022/08/21 01:01:36;;;;;;;7.00;6.30;;;19.70;74.80;;;;;;5074727;28;20449;-71
2022/08/21 01:04:03;;;;;;;6.67;6.03;;;19.70;74.90;;;;;;5074615;28;20495;-71
2022/08/21 01:06:30;;;;;;;9.27;6.70;;;19.70;74.80;;;;;;5076415;28;20440;-71
2022/08/21 01:08:57;;;;;;;11.13;6.13;;;19.70;74.80;;;;;;5076797;28;20453;-71
2022/08/21 01:11:24;;;;;;;7.17;6.07;;;19.70;74.80;;;;;;5075033;28;20449;-70
2022/08/21 01:13:51;;;;;;;7.03;6.17;;;19.70;75.00;;;;;;5073150;28;20469;-70
2022/08/21 01:16:22;;;;;;;8.40;5.43;;;19.70;75.10;;;;;;5073224;28;20480;-70
2022/08/21 01:18:50;;;;;;;11.07;6.43;;;19.60;75.20;;;;;;5073293;28;20425;-70
2022/08/21 01:21:20;;;;;;;7.93;5.97;;;19.60;75.20;;;;;;5073201;28;20467;-70
2022/08/21 01:23:50;;;;;;;10.57;6.53;;;19.60;75.40;;;;;;5073061;28;20464;-70
2022/08/21 01:26:21;;;;;;;11.33;6.30;;;19.50;75.50;;;;;;5073220;28;20448;-70
2022/08/21 01:28:53;;;;;;;14.40;6.33;;;19.50;75.80;;;;;;5073061;28;20922;-70
2022/08/21 01:31:23;;;;;;;16.43;7.40;;;19.50;76.00;;;;;;5072957;28;20451;-70
2022/08/21 01:33:50;;;;;;;14.83;6.67;;;19.40;76.30;;;;;;5073130;28;20469;-70
2022/08/21 01:36:18;;;;;;;13.47;6.40;;;19.40;76.60;;;;;;5073214;28;20449;-70
2022/08/21 01:38:46;;;;;;;13.33;7.17;;;19.40;76.80;;;;;;5073389;28;20449;-71
2022/08/21 01:41:14;;;;;;;10.77;6.87;;;19.30;76.80;;;;;;5075979;28;20452;-70
2022/08/21 01:43:41;;;;;;;15.43;6.57;;;19.30;77.00;;;;;;5076794;28;20476;-70
2022/08/21 01:46:08;;;;;;;11.90;6.83;;;19.30;77.30;;;;;;5076962;28;20490;-70
2022/08/21 01:48:35;;;;;;;13.50;6.70;;;19.30;77.40;;;;;;5076934;28;20985;-70
2022/08/21 01:51:02;;;;;;;14.57;6.93;;;19.30;77.40;;;;;;5077361;28;20444;-70
2022/08/21 01:53:30;;;;;;;11.20;6.50;;;19.30;77.50;;;;;;5077440;28;20461;-70
2022/08/21 01:55:57;;;;;;;8.00;5.83;;;19.30;77.40;;;;;;5077723;28;20462;-70
2022/08/21 01:58:24;;;;;;;12.60;7.70;;;19.30;77.30;;;;;;5078395;28;20962;-70
2022/08/21 02:00:51;;;;;;;11.47;6.70;;;19.20;77.10;;;;;;5077853;28;20449;-70
2022/08/21 02:03:17;;;;;;;9.20;6.33;;;19.20;77.30;;;;;;5077084;28;20465;-70
2022/08/21 02:05:44;;;;;;;13.53;6.97;;;19.20;77.30;;;;;;5076533;28;20444;-70
2022/08/21 02:08:11;;;;;;;18.03;6.57;;;19.20;77.20;;;;;;5076327;28;20527;-70
2022/08/21 02:10:40;;;;;;;11.10;6.50;;;19.10;77.10;;;;;;5076282;28;20796;-70
2022/08/21 02:13:08;;;;;;;8.43;5.63;;;19.10;77.20;;;;;;5076166;28;20468;-70
2022/08/21 02:15:35;;;;;;;8.67;5.87;;;19.10;77.30;;;;;;5076234;28;20456;-69
2022/08/21 02:18:05;;;;;;;10.97;6.60;;;19.10;77.20;;;;;;5076015;28;20987;-70
2022/08/21 02:20:35;;;;;;;12.73;6.23;;;19.00;77.00;;;;;;5076393;28;20449;-70
2022/08/21 02:23:02;;;;;;;13.83;6.40;;;19.00;76.90;;;;;;5075751;28;21011;-70
2022/08/21 02:25:30;;;;;;;9.67;5.77;;;19.00;76.90;;;;;;5075816;28;20984;-70
2022/08/21 02:27:59;;;;;;;9.00;5.93;;;18.90;76.80;;;;;;5076184;28;20814;-71
2022/08/21 02:30:30;;;;;;;12.83;7.13;;;18.90;76.80;;;;;;5076364;28;20958;-71
2022/08/21 02:32:59;;;;;;;14.80;6.17;;;18.90;76.90;;;;;;5076538;28;20480;-70
2022/08/21 02:35:26;;;;;;;11.77;5.60;;;18.90;77.00;;;;;;5075875;28;20449;-70
2022/08/21 02:37:55;;;;;;;12.37;6.37;;;18.90;76.90;;;;;;5075404;28;21013;-70
2022/08/21 02:40:25;;;;;;;9.27;6.90;;;18.90;76.80;;;;;;5075837;28;20463;-70
2022/08/21 02:42:53;;;;;;;11.00;6.50;;;18.90;76.90;;;;;;5075840;28;20564;-70
2022/08/21 02:45:21;;;;;;;11.20;5.90;;;18.90;77.10;;;;;;5075773;28;20437;-70
2022/08/21 02:47:50;;;;;;;13.97;6.27;;;18.90;77.30;;;;;;5075656;28;20444;-70
2022/08/21 02:50:22;;;;;;;15.80;7.43;;;18.80;77.40;;;;;;5075509;28;20437;-70
2022/08/21 02:52:49;;;;;;;13.40;7.10;;;18.70;77.90;;;;;;5074427;28;20465;-70
2022/08/21 02:55:15;;;;;;;17.17;6.77;;;18.70;78.30;;;;;;5075432;28;20640;-71
2022/08/21 02:57:42;;;;;;;16.53;7.10;;;18.60;78.30;;;;;;5075189;28;20570;-70
2022/08/21 03:00:11;;;;;;;12.60;6.23;;;18.60;78.20;;;;;;5075509;28;20808;-69
2022/08/21 03:02:40;;;;;;;19.83;6.80;;;18.60;78.30;;;;;;5075688;28;20465;-70
2022/08/21 03:05:08;;;;;;;14.13;7.30;;;18.60;78.30;;;;;;5075372;28;20445;-70
2022/08/21 03:07:35;;;;;;;17.53;6.93;;;18.60;78.50;;;;;;5075398;28;20459;-70
2022/08/21 03:10:02;;;;;;;19.00;7.60;;;18.60;78.80;;;;;;5075591;28;20483;-70
2022/08/21 03:12:28;;;;;;;13.03;7.30;;;18.50;78.80;;;;;;5075141;28;20472;-70
2022/08/21 03:14:55;;;;;;;12.97;7.23;;;18.50;78.90;;;;;;5075075;28;20452;-69
2022/08/21 03:17:22;;;;;;;15.57;8.30;;;18.40;79.00;;;;;;5075245;28;20476;-72
2022/08/21 03:19:50;;;;;;;15.83;7.47;;;18.40;79.20;;;;;;5075180;28;20464;-73
2022/08/21 03:22:17;;;;;;;21.30;7.93;;;18.30;79.50;;;;;;5075235;28;20445;-72
2022/08/21 03:24:45;;;;;;;15.33;8.80;;;18.30;79.60;;;;;;5074829;28;20869;-72
2022/08/21 03:27:12;;;;;;;15.43;8.20;;;18.20;80.10;;;;;;5075263;28;20492;-73
2022/08/21 03:29:39;;;;;;;16.27;8.80;;;18.20;80.70;;;;;;5075251;28;20445;-73
2022/08/21 03:32:09;;;;;;;13.37;8.63;;;18.20;80.90;;;;;;5075027;28;20483;-73
2022/08/21 03:34:35;;;;;;;20.27;8.47;;;18.10;81.20;;;;;;5075762;28;20441;-72
2022/08/21 03:37:05;;;;;;;17.70;9.33;;;18.20;81.20;;;;;;5075552;28;20919;-73
2022/08/21 03:39:31;;;;;;;14.43;9.27;;;18.10;81.20;;;;;;5075265;28;20467;-73
2022/08/21 03:41:59;;;;;;;19.10;10.30;;;18.20;81.70;;;;;;5076831;28;20455;-72
2022/08/21 03:44:28;;;;;;;15.17;10.30;;;18.30;82.10;;;;;;5077471;28;20545;-72
2022/08/21 03:46:54;;;;;;;21.80;11.00;;;18.30;82.30;;;;;;5077813;28;20479;-72
2022/08/21 03:49:21;;;;;;;19.50;10.27;;;18.40;82.50;;;;;;5075067;28;20452;-73
2022/08/21 03:51:48;;;;;;;22.90;11.57;;;18.40;82.10;;;;;;5074423;28;20449;-73
2022/08/21 03:54:17;;;;;;;21.80;12.47;;;18.40;81.70;;;;;;5074214;28;20979;-72
2022/08/21 03:56:43;;;;;;;24.20;11.90;;;18.40;81.70;;;;;;5073991;28;20552;-72
2022/08/21 03:59:10;;;;;;;17.43;12.00;;;18.40;81.60;;;;;;5074213;28;20470;-72
2022/08/21 04:01:38;;;;;;;21.47;10.23;;;18.40;81.70;;;;;;5074260;28;20445;-72
2022/08/21 04:04:06;;;;;;;19.43;9.93;;;18.40;81.50;;;;;;5074103;28;20564;-72
2022/08/21 04:06:33;;;;;;;16.23;10.70;;;18.40;81.50;;;;;;5074163;28;20445;-73
2022/08/21 04:08:59;;;;;;;15.67;10.57;;;18.40;81.40;;;;;;5074016;28;20476;-73
2022/08/21 04:11:27;;;;;;;14.70;10.03;;;18.40;81.30;;;;;;5073973;28;20449;-73
2022/08/21 04:13:54;;;;;;;21.70;10.23;;;18.40;82.10;;;;;;5073643;28;20473;-73
2022/08/21 04:16:21;;;;;;;16.33;9.83;;;18.40;81.40;;;;;;5074139;28;20451;-72
2022/08/21 04:18:48;;;;;;;16.57;10.20;;;18.40;81.40;;;;;;5073811;28;20488;-72
2022/08/21 04:21:14;;;;;;;16.23;9.10;;;18.40;81.40;;;;;;5073804;28;20456;-72
2022/08/21 04:23:41;;;;;;;15.83;8.47;;;18.30;81.20;;;;;;5073733;28;21000;-72
2022/08/21 04:26:08;;;;;;;19.90;9.13;;;18.30;81.20;;;;;;5073840;28;20448;-72
2022/08/21 04:28:36;;;;;;;11.70;8.00;;;18.30;81.30;;;;;;5073727;28;20453;-73
2022/08/21 04:31:03;;;;;;;10.93;8.43;;;18.30;81.40;;;;;;5074084;28;20854;-72
2022/08/21 04:33:30;;;;;;;13.23;7.40;;;18.30;81.30;;;;;;5073592;28;20998;-73
2022/08/21 04:35:56;;;;;;;17.60;8.67;;;18.30;81.20;;;;;;5073857;28;20448;-72
2022/08/21 04:38:23;;;;;;;19.33;7.47;;;18.30;81.10;;;;;;5073736;28;20915;-72
2022/08/21 04:40:52;;;;;;;12.63;7.37;;;18.30;81.20;;;;;;5073851;28;20448;-73
2022/08/21 04:43:19;;;;;;;11.93;7.60;;;18.20;80.90;;;;;;5073642;28;20563;-72
2022/08/21 04:45:48;;;;;;;14.60;7.80;;;18.20;80.90;;;;;;5074028;28;20488;-72
2022/08/21 04:48:17;;;;;;;10.77;8.03;;;18.20;81.10;;;;;;5074123;28;20447;-72
2022/08/21 04:50:48;;;;;;;14.47;7.10;;;18.20;81.20;;;;;;5074271;28;20472;-72
2022/08/21 04:53:18;;;;;;;14.13;6.23;;;18.10;81.20;;;;;;5073888;28;20844;-72
2022/08/21 04:55:46;;;;;;;8.60;5.70;;;18.20;81.60;;;;;;5074762;28;20445;-72
2022/08/21 04:58:16;;;;;;;10.17;6.70;;;18.20;81.90;;;;;;5074591;28;20520;-72
2022/08/21 05:00:44;;;;;;;13.37;6.13;;;18.20;82.00;;;;;;5074446;28;20432;-72
2022/08/21 05:03:13;;;;;;;6.63;5.20;;;18.20;81.80;;;;;;5074852;28;20820;-69
2022/08/21 05:05:40;;;;;;;12.33;6.50;;;18.30;82.00;;;;;;5073542;28;20438;-70
2022/08/21 05:08:10;;;;;;;9.73;6.10;;;18.30;82.00;;;;;;5073083;28;21005;-69
2022/08/21 05:10:36;;;;;;;15.57;6.07;;;18.30;81.80;;;;;;5073460;28;20464;-69
2022/08/21 05:13:05;;;;;;;10.93;5.17;;;18.30;81.90;;;;;;5073430;28;20857;-69
2022/08/21 05:15:32;;;;;;;8.63;5.07;;;18.30;83.00;;;;;;5075342;28;21039;-69
2022/08/21 05:17:58;;;;;;;10.80;5.60;;;18.30;82.30;;;;;;5076971;28;20480;-69
2022/08/21 05:20:27;;;;;;;7.90;5.50;;;18.30;82.40;;;;;;5077232;28;20441;-69
2022/08/21 05:22:53;;;;;;;10.90;4.83;;;18.30;82.60;;;;;;5077486;28;20479;-70
2022/08/21 05:25:20;;;;;;;9.27;4.97;;;18.30;82.70;;;;;;5077519;28;20455;-69
2022/08/21 05:27:47;;;;;;;15.73;5.77;;;18.40;83.10;;;;;;5077502;28;20543;-69
2022/08/21 05:30:14;;;;;;;7.57;5.10;;;18.40;82.90;;;;;;5077310;28;20986;-69
2022/08/21 05:32:41;;;;;;;8.30;4.90;;;18.40;82.30;;;;;;5077536;28;20487;-69
2022/08/21 05:35:09;;;;;;;9.10;5.10;;;18.40;81.90;;;;;;5077324;28;20452;-69
2022/08/21 05:37:37;;;;;;;10.97;5.13;;;18.50;82.40;;;;;;5077070;28;20484;-69
2022/08/21 05:40:07;;;;;;;14.93;5.07;;;18.50;82.50;;;;;;5076976;28;20472;-70
2022/08/21 05:42:34;;;;;;;9.50;5.37;;;18.60;82.50;;;;;;5076828;28;20520;-71
2022/08/21 05:45:00;;;;;;;11.63;5.13;;;18.60;82.70;;;;;;5076953;28;20445;-72
2022/08/21 05:47:27;;;;;;;8.10;4.10;;;18.70;82.60;;;;;;5076862;28;20483;-73
2022/08/21 05:49:54;;;;;;;12.67;4.63;;;18.70;82.00;;;;;;5077091;28;20452;-73
2022/08/21 05:52:21;;;;;;;11.53;4.80;;;18.80;82.10;;;;;;5076762;28;20451;-72
2022/08/21 05:54:50;;;;;;;8.80;5.00;;;18.80;81.70;;;;;;5076756;28;20455;-70
2022/08/21 05:57:17;;;;;;;8.47;4.50;;;18.90;81.90;;;;;;5076146;28;20977;-70
2022/08/21 05:59:44;;;;;;;8.57;4.97;;;18.90;81.80;;;;;;5076917;28;20529;-72
2022/08/21 06:02:11;;;;;;;6.60;4.73;;;18.90;81.70;;;;;;5076835;28;20455;-70
2022/08/21 06:04:38;;;;;;;9.73;5.43;;;18.90;82.20;;;;;;5077030;28;20433;-70
2022/08/21 06:07:06;;;;;;;8.80;4.63;;;18.90;81.80;;;;;;5076932;28;20453;-73
2022/08/21 06:09:33;;;;;;;7.93;4.27;;;18.90;81.70;;;;;;5076917;28;20437;-73
2022/08/21 06:12:05;;;;;;;10.73;4.47;;;18.90;80.90;;;;;;5076533;28;20443;-73
2022/08/21 06:14:32;;;;;;;11.40;4.80;;;18.90;80.90;;;;;;5076671;28;20979;-71
2022/08/21 06:17:03;;;;;;;6.20;4.07;;;18.90;81.30;;;;;;5077369;28;20455;-71
2022/08/21 06:19:30;;;;;;;10.10;4.30;;;19.00;80.30;;;;;;5077941;28;20840;-71
2022/08/21 06:21:57;;;;;;;11.07;4.43;;;19.00;81.40;;;;;;5079361;28;20449;-71
2022/08/21 06:24:24;;;;;;;9.80;4.40;;;18.90;80.10;;;;;;5080069;28;20475;-70
2022/08/21 06:26:50;;;;;;;10.43;4.00;;;19.00;81.70;;;;;;5074724;28;20445;-69
2022/08/21 06:29:19;;;;;;;10.83;3.30;;;19.00;81.30;;;;;;5075882;28;20444;-69
2022/08/21 06:31:47;;;;;;;10.37;3.97;;;19.00;81.30;;;;;;5076031;28;20825;-69
2022/08/21 06:34:14;;;;;;;6.90;3.97;;;19.00;80.80;;;;;;5075761;28;20476;-69
2022/08/21 06:36:40;;;;;;;6.77;3.80;;;19.10;81.30;;;;;;5075690;28;20449;-69
2022/08/21 06:39:07;;;;;;;6.83;3.47;;;19.20;80.80;;;;;;5075752;28;20484;-69
2022/08/21 06:41:34;;;;;;;7.87;4.30;;;19.20;81.00;;;;;;5075864;28;20445;-69
2022/08/21 06:44:01;;;;;;;11.97;3.93;;;19.30;81.00;;;;;;5075660;28;20465;-70
2022/08/21 06:46:31;;;;;;;7.10;3.93;;;19.40;81.60;;;;;;5075797;28;20444;-67
2022/08/21 06:48:58;;;;;;;7.47;3.30;;;19.40;81.40;;;;;;5075340;28;20967;-68
2022/08/21 06:51:26;;;;;;;8.80;3.33;;;19.50;78.90;;;;;;5075159;28;20923;-70
2022/08/21 06:53:53;;;;;;;9.57;3.30;;;19.50;78.00;;;;;;5075687;28;20519;-70
2022/08/21 06:56:20;;;;;;;6.13;3.23;;;19.60;77.10;;;;;;5075383;28;20452;-70
2022/08/21 06:58:47;;;;;;;10.93;4.30;;;19.60;77.30;;;;;;5075322;28;20472;-70
2022/08/21 07:01:14;;;;;;;11.13;3.50;;;19.60;79.50;;;;;;5075497;28;20441;-70
2022/08/21 07:03:43;;;;;;;7.67;3.37;;;19.60;78.50;;;;;;5074925;28;20490;-70
2022/08/21 07:06:11;;;;;;;4.80;3.40;;;19.60;77.80;;;;;;5075173;28;20475;-70
2022/08/21 07:08:39;;;;;;;10.50;3.30;;;19.60;77.90;;;;;;5075235;28;20452;-70
2022/08/21 07:11:11;;;;;;;7.67;3.40;;;19.70;77.80;;;;;;5075107;28;20453;-70
2022/08/21 07:13:38;;;;;;;9.27;3.10;;;19.80;76.10;;;;;;5075082;28;20475;-70
2022/08/21 07:16:05;;;;;;;9.30;3.70;;;19.80;77.20;;;;;;5074940;28;20911;-70
2022/08/21 07:18:32;;;;;;;5.27;3.13;;;20.00;78.00;;;;;;5075367;28;20528;-70
2022/08/21 07:21:03;;;;;;;8.93;3.07;;;20.10;77.50;;;;;;5075098;28;20457;-70
2022/08/21 07:23:32;;;;;;;6.40;3.20;;;20.20;76.40;;;;;;5074998;28;20480;-70
2022/08/21 07:26:00;;;;;;;8.80;3.30;;;20.30;75.60;;;;;;5075098;28;20460;-70
2022/08/21 07:28:27;;;;;;;9.53;2.80;;;20.50;75.40;;;;;;5074827;28;20435;-70
2022/08/21 07:30:56;;;;;;;5.93;2.70;;;20.60;73.30;;;;;;5074808;28;20448;-70
2022/08/21 07:33:23;;;;;;;7.80;2.90;;;20.70;72.80;;;;;;5074609;28;20465;-70
2022/08/21 07:35:50;;;;;;;5.60;2.57;;;20.80;71.20;;;;;;5074556;28;20444;-70
2022/08/21 07:38:18;;;;;;;10.10;3.43;;;20.90;70.50;;;;;;5074098;28;20481;-70
2022/08/21 07:40:46;;;;;;;5.80;2.93;;;21.00;69.80;;;;;;5074494;28;20527;-70
2022/08/21 07:43:12;;;;;;;7.80;3.03;;;21.10;70.10;;;;;;5074906;28;20467;-70
2022/08/21 07:45:39;;;;;;;8.07;2.70;;;21.10;70.70;;;;;;5074429;28;20449;-70
2022/08/21 07:48:06;;;;;;;5.40;2.20;;;21.20;69.10;;;;;;5074441;28;20448;-70
2022/08/21 07:50:33;;;;;;;6.27;2.67;;;21.30;68.80;;;;;;5074428;28;20519;-70
2022/08/21 07:52:59;;;;;;;5.97;2.40;;;21.40;68.70;;;;;;5073948;28;20469;-70
2022/08/21 07:55:28;;;;;;;5.53;2.30;;;21.50;68.70;;;;;;5074584;28;20804;-70
2022/08/21 07:57:54;;;;;;;6.07;3.00;;;21.60;67.50;;;;;;5074211;28;20452;-70
2022/08/21 08:00:25;;;;;;;4.30;2.03;;;21.60;67.00;;;;;;5074176;28;20469;-70
2022/08/21 08:02:53;;;;;;;4.77;2.17;;;21.80;65.20;;;;;;5074431;28;20464;-70
2022/08/21 08:05:28;;;;;;;8.77;2.60;;;21.90;66.10;;;;;;5074476;28;20535;-70
2022/08/21 08:07:55;;;;;;;5.67;2.13;;;22.00;64.80;;;;;;5074473;28;20433;-70
2022/08/21 08:10:23;;;;;;;4.70;2.03;;;22.20;64.70;;;;;;5074413;28;20449;-70
2022/08/21 08:12:52;;;;;;;4.90;1.83;;;22.30;64.30;;;;;;5074001;28;20465;-70
2022/08/21 08:15:23;;;;;;;3.20;1.90;;;22.50;64.70;;;;;;5073929;28;20425;-70
2022/08/21 08:17:50;;;;;;;7.03;2.73;;;22.80;64.50;;;;;;5073818;28;20429;-70
2022/08/21 08:20:19;;;;;;;6.70;2.03;;;23.00;61.60;;;;;;5073844;28;20495;-70
2022/08/21 08:22:46;;;;;;;3.47;1.70;;;23.20;61.10;;;;;;5073703;28;20469;-69
2022/08/21 08:25:14;;;;;;;3.93;1.73;;;23.60;59.50;;;;;;5073890;28;20448;-69
2022/08/21 08:27:41;;;;;;;5.63;1.97;;;23.80;58.70;;;;;;5073687;28;20429;-69
2022/08/21 08:30:13;;;;;;;4.63;1.80;;;24.10;58.20;;;;;;5073643;28;20528;-69
2022/08/21 08:32:41;;;;;;;3.60;1.93;;;24.40;57.40;;;;;;5073399;28;21017;-69
2022/08/21 08:35:10;;;;;;;3.07;2.20;;;24.70;56.70;;;;;;5074097;28;20444;-69
2022/08/21 08:37:39;;;;;;;3.33;1.60;;;24.80;54.70;;;;;;5073883;28;20434;-69
2022/08/21 08:40:08;;;;;;;6.13;2.23;;;25.00;54.80;;;;;;5073554;28;20481;-69
2022/08/21 08:42:36;;;;;;;4.40;2.07;;;25.20;54.50;;;;;;5073565;28;20465;-69
2022/08/21 08:45:06;;;;;;;4.00;2.00;;;25.40;54.10;;;;;;5073281;28;20543;-69
2022/08/21 08:47:37;;;;;;;3.93;1.70;;;25.60;53.00;;;;;;5074008;28;20798;-69
2022/08/21 08:50:07;;;;;;;6.47;2.27;;;25.70;52.70;;;;;;5073250;28;20433;-69
2022/08/21 08:52:36;;;;;;;4.57;2.23;;;25.90;52.20;;;;;;5074269;28;20472;-69
2022/08/21 08:55:06;;;;;;;4.40;1.80;;;26.00;51.40;;;;;;5075216;28;20957;-69
2022/08/21 08:57:34;;;;;;;4.40;1.90;;;26.00;51.50;;;;;;5075987;28;20479;-69
2022/08/21 09:00:05;;;;;;;1.50;1.40;;;26.10;51.30;;;;;;5073682;28;21059;-69
2022/08/21 09:02:33;;;;;;;4.40;1.70;;;26.20;51.10;;;;;;5073223;28;20464;-69
2022/08/21 09:05:01;;;;;;;3.90;2.03;;;26.20;50.40;;;;;;5073398;28;20499;-69
2022/08/21 09:07:39;;;;;;;2.77;1.57;;;26.40;50.00;;;;;;5073221;28;20451;-69
2022/08/21 09:10:15;;;;;;;1.90;1.40;;;26.50;49.50;;;;;;5073282;28;20425;-69
2022/08/21 09:13:07;;;;;;;4.77;1.63;;;26.70;48.80;;;;;;5073289;28;20468;-70
2022/08/21 09:15:43;;;;;;;4.57;1.67;;;26.80;48.10;;;;;;5073302;28;20449;-69
2022/08/21 09:18:21;;;;;;;2.80;1.77;;;26.80;47.80;;;;;;5072956;28;20436;-69
2022/08/21 09:21:03;;;;;;;4.23;2.20;;;27.00;47.90;;;;;;5073026;28;20422;-71
2022/08/21 09:23:43;;;;;;;3.10;1.40;;;27.10;47.20;;;;;;5073177;28;20838;-72
2022/08/21 09:26:15;;;;;;;1.60;1.00;;;27.20;47.40;;;;;;5072864;28;20425;-71
2022/08/21 09:28:42;;;;;;;3.50;1.80;;;27.50;46.40;;;;;;5073083;28;20434;-71
2022/08/21 09:31:22;;;;;;;3.60;1.70;;;27.70;45.50;;;;;;5073004;28;20955;-71
2022/08/21 09:33:49;;;;;;;2.80;1.53;;;27.90;44.60;;;;;;5072958;28;20487;-72
2022/08/21 09:36:27;;;;;;;3.20;1.53;;;28.10;44.50;;;;;;5073041;28;20444;-71
2022/08/21 09:38:56;;;;;;;3.50;1.30;;;28.30;44.10;;;;;;5072671;28;20989;-71
2022/08/21 09:41:29;;;;;;;2.30;1.60;;;28.30;43.40;;;;;;5072924;28;20452;-72
2022/08/21 09:43:56;;;;;;;2.87;1.73;;;28.30;43.80;;;;;;5072912;28;20469;-72
2022/08/21 09:46:25;;;;;;;3.40;1.50;;;28.30;43.40;;;;;;5072928;28;20463;-72
2022/08/21 09:48:54;;;;;;;2.83;1.40;;;28.40;43.70;;;;;;5072956;28;20441;-72
2022/08/21 09:51:25;;;;;;;4.50;2.23;;;28.40;43.60;;;;;;5073009;28;20437;-71
2022/08/21 09:53:55;;;;;;;3.83;1.43;;;28.60;43.50;;;;;;5072958;28;20457;-72
2022/08/21 09:59:19;;;;;;;3.33;1.30;;;28.80;42.50;;;;;;5073174;28;20526;-72
2022/08/21 10:01:49;;;;;;;2.20;1.37;;;29.10;42.10;;;;;;5075155;28;20430;-71
2022/08/21 10:04:20;;;;;;;3.60;1.73;;;29.30;41.70;;;;;;5076360;28;20496;-72
2022/08/21 10:06:48;;;;;;;2.50;1.60;;;29.50;40.60;;;;;;5076106;28;20433;-72
2022/08/21 10:09:17;;;;;;;4.83;1.80;;;29.70;40.10;;;;;;5075985;28;20928;-72
2022/08/21 10:11:53;;;;;;;5.73;1.60;;;30.00;39.70;;;;;;5076020;28;20459;-72
2022/08/21 10:14:39;;;;;;;5.70;1.30;;;30.50;38.80;;;;;;5076230;28;20472;-72
2022/08/21 10:17:13;;;;;;;3.77;1.23;;;31.00;37.10;;;;;;5076285;28;20433;-72
2022/08/21 10:19:48;;;;;;;5.90;1.83;;;31.40;37.20;;;;;;5076105;28;20471;-72
2022/08/21 10:22:29;;;;;;;3.90;1.60;;;31.60;36.40;;;;;;5076801;28;20447;-71
2022/08/21 10:25:03;;;;;;;4.03;1.57;;;31.70;35.50;;;;;;5075944;28;20433;-71
2022/08/21 10:27:38;;;;;;;3.90;1.80;;;31.80;35.50;;;;;;5075968;28;20425;-71
2022/08/21 10:30:09;;;;;;;1.93;1.33;;;32.00;34.90;;;;;;5075976;28;20431;-71
2022/08/21 10:33:00;;;;;;;3.30;1.60;;;32.10;33.50;;;;;;5076311;28;20507;-71
2022/08/21 10:35:31;;;;;;;2.70;1.40;;;32.30;33.80;;;;;;5075572;28;20899;-70
2022/08/21 10:38:29;;;;;;;3.93;1.60;;;32.40;33.60;;;;;;5075806;28;20440;-70
2022/08/21 10:41:06;;;;;;;3.13;1.47;;;32.70;33.60;;;;;;5068377;28;20488;-71
2022/08/21 10:43:43;;;;;;;6.43;2.07;;;33.00;32.50;;;;;;5075522;28;20460;-71
2022/08/21 10:46:18;;;;;;;6.63;1.80;;;33.40;32.00;;;;;;5075708;28;20428;-71
2022/08/21 10:48:51;;;;;;;8.43;1.70;;;33.60;30.70;;;;;;5075217;28;20462;-71
2022/08/21 10:51:29;;;;;;;2.63;1.70;;;33.70;30.50;;;;;;5075522;28;20899;-71
2022/08/21 10:54:04;;;;;;;4.27;2.30;;;33.70;29.90;;;;;;5075751;28;20807;-71
2022/08/21 10:56:33;;;;;;;5.57;1.97;;;33.70;30.70;;;;;;5075397;28;20460;-71
2022/08/21 10:59:26;;;;;;;3.70;1.83;;;33.90;30.10;;;;;;5075508;28;20448;-71
2022/08/21 11:01:59;;;;;;;5.57;2.30;;;34.30;29.60;;;;;;5076048;28;20494;-71
2022/08/21 11:04:31;;;;;;;3.17;1.60;;;34.50;29.60;;;;;;5076074;28;20482;-71
2022/08/21 11:07:04;;;;;;;4.50;2.03;;;34.70;29.40;;;;;;5076359;28;20498;-70
2022/08/21 11:09:33;;;;;;;3.47;1.80;;;35.10;28.70;;;;;;5076648;28;20431;-70
2022/08/21 11:12:04;;;;;;;5.07;2.20;;;35.40;27.80;;;;;;5075541;28;20429;-70
2022/08/21 11:14:39;;;;;;;5.47;1.97;;;35.70;27.50;;;;;;5075283;28;20536;-71
2022/08/21 11:17:09;;;;;;;6.30;2.23;;;36.10;26.90;;;;;;5074839;28;20793;-71
2022/08/21 11:19:43;;;;;;;5.27;1.97;;;36.50;26.30;;;;;;5075080;28;20484;-71
2022/08/21 11:22:16;;;;;;;2.90;1.80;;;36.70;26.60;;;;;;5075074;28;20440;-71
2022/08/21 11:24:51;;;;;;;3.70;1.70;;;36.60;26.60;;;;;;5075209;28;20436;-71
2022/08/21 11:27:23;;;;;;;3.77;1.63;;;36.50;26.40;;;;;;5075233;28;20428;-70
2022/08/21 11:29:55;;;;;;;4.00;1.80;;;36.40;26.60;;;;;;5076041;28;20433;-71
2022/08/21 11:32:45;;;;;;;3.37;1.60;;;36.50;26.80;;;;;;5076365;28;20910;-71
2022/08/21 11:35:21;;;;;;;6.53;1.80;;;36.90;26.20;;;;;;5071261;28;20455;-70
2022/08/21 11:38:03;;;;;;;4.00;1.73;;;37.30;25.30;;;;;;5074704;28;20539;-71
2022/08/21 11:40:45;;;;;;;5.10;2.07;;;37.60;24.60;;;;;;5074346;28;20209;-70
2022/08/21 11:43:22;;;;;;;3.30;1.70;;;37.90;24.50;;;;;;5074149;28;20712;-71
2022/08/21 11:45:52;;;;;;;3.17;1.65;;;38.20;24.50;;;;;;5074561;28;20186;-71
2022/08/21 11:48:35;;;;;;;3.40;1.50;;;38.50;24.50;;;;;;5074536;28;20209;-70
2022/08/21 11:51:07;;;;;;;5.82;2.17;;;38.70;24.30;;;;;;5074514;28;20186;-70
2022/08/21 11:53:38;;;;;;;3.38;1.73;;;38.50;24.00;;;;;;5073846;28;20598;-70
2022/08/21 11:56:12;;;;;;;3.03;1.52;;;38.10;24.40;;;;;;5074118;28;20187;-70
2022/08/21 11:58:43;;;;;;;2.60;1.23;;;37.90;25.00;;;;;;5074155;28;20209;-71
2022/08/21 12:01:13;;;;;;;2.63;1.63;;;38.00;25.20;;;;;;5074129;28;20231;-71
2022/08/21 12:03:43;;;;;;;2.78;1.40;;;38.30;24.70;;;;;;5074051;28;20229;-70
2022/08/21 12:06:11;;;;;;;2.83;1.35;;;38.70;24.70;;;;;;5074080;28;20208;-70
2022/08/21 12:08:41;;;;;;;3.80;1.58;;;38.80;23.80;;;;;;5074219;28;20208;-71
2022/08/21 12:11:11;;;;;;;3.35;1.42;;;39.00;23.30;;;;;;5073996;28;20198;-71
2022/08/21 12:13:55;;;;;;;2.55;1.52;;;39.20;23.50;;;;;;5073955;28;20592;-71
2022/08/21 12:16:32;;;;;;;4.57;1.88;;;39.60;23.00;;;;;;5073969;28;20186;-71
2022/08/21 12:19:07;;;;;;;3.13;1.20;;;40.20;22.60;;;;;;5073794;28;20189;-71
2022/08/21 12:21:35;;;;;;;2.25;1.40;;;40.60;21.90;;;;;;5073813;28;20247;-71
2022/08/21 12:24:06;;;;;;;4.38;1.77;;;40.90;21.60;;;;;;5073700;28;20232;-71
2022/08/21 12:26:36;;;;;;;3.42;1.48;;;41.30;21.30;;;;;;5073723;28;20190;-71
2022/08/21 12:29:13;;;;;;;3.75;1.50;;;41.60;19.90;;;;;;5073467;28;20659;-71
2022/08/21 12:31:50;;;;;;;2.90;1.60;;;41.90;20.20;;;;;;5073997;28;20202;-71
2022/08/21 12:34:18;;;;;;;1.95;1.00;;;42.30;20.10;;;;;;5073598;28;20271;-71
2022/08/21 12:36:50;;;;;;;3.78;1.55;;;42.60;19.60;;;;;;5073592;28;20208;-71
2022/08/21 12:39:23;;;;;;;2.55;1.25;;;42.60;19.30;;;;;;5073608;28;20189;-71
2022/08/21 12:41:56;;;;;;;2.40;1.20;;;42.80;18.50;;;;;;5073585;28;20277;-71
2022/08/21 12:44:31;;;;;;;4.47;1.40;;;42.60;18.80;;;;;;5073572;28;20584;-71
2022/08/21 12:47:02;;;;;;;5.82;1.60;;;42.70;19.20;;;;;;5073734;28;20185;-71
2022/08/21 12:49:33;;;;;;;7.95;1.50;;;42.90;18.50;;;;;;5073602;28;20216;-71
2022/08/21 12:52:08;;;;;;;6.40;1.40;;;43.00;18.60;;;;;;5073437;28;20442;-70
2022/08/21 12:54:40;;;;;;;2.72;1.40;;;43.30;19.10;;;;;;5073439;28;20221;-71
2022/08/21 12:57:10;;;;;;;3.47;1.25;;;43.50;17.60;;;;;;5073287;28;20595;-71